Adelma Beach, Washington
Current Conditions -  °F | °C
As of 3:56 PM on Monday 20 Oct 2014 (Local Time) from KNUW Reporting Station
Broken Clouds Broken Clouds  
Wind Chill: 18°   Ceiling: 3000
Heat Index: 18°   Visibility: 10mi
Dew Point: 12°   Wind: 16mph
Humidity: 65%   Direction: 150°SSE
Pressure: 29.73"   Gusts: NA
Location:  48.026°N, 122.859°W
Report Text: KNUW 202256Z 15014KT 10SM FEW020 BKN030 BKN110 BKN200 18/12 A2973 RMK AO2 SLP070 T01830117 $
Loading
Personal Weather Stations






























Interactive Weather Map
Tropical Storm Tracking
New forecast layout! Learn more

10-Day Weather Forecast

Advertisements
Track Severe Weather on mobile